Weather observations for the past three days for
Point Hope, Point Hope Airport
Imperial (Metric)
Date Time (akdt) Wind (mph) Vis. (mi.) Weather Sky Cond. Temperature (ºF) Relative Humidity Wind Chill (°F) Heat Index (°F) Pressure Precipitation (in)
Air Dwpt 6 hour altimeter (in) sea level (mb) 1 hr 3 hr 6 hr
Max. Min.
09 02:56 NE 25 G 32 1.50 Light Snow Fog/Mist and Breezy CLR 18 14 84% 1 29.94 1013.7
09 01:56 NE 29 7.00 Light Snow and Windy CLR 18 14 84% -0 29.94 1013.8
09 00:56 NE 23 9.00 Fair and Breezy CLR 18 15.1 88% 2 29.96 1014.3
08 23:56 NE 22 8.00 Light Snow and Breezy CLR 19.9 16 85% 5 29.97 1014.7
08 22:56 NE 16 10.00 Fair CLR 23 17.1 78% 11 29.99 1015.4
08 21:56 N 20 7.00 Light Snow CLR 24.1 19 30 24.1 81% 11 29.98 1015.2
08 20:56 NE 12 9.00 Fair CLR 25 19 78% 15 30.01 1016.0
08 19:56 NE 10 10.00 Fair CLR 28 21 75% 19 30.01 1016.3
08 18:56 NE 16 10.00 Fair CLR 28.9 19 66% 18 30.02 1016.3
08 17:56 N 18 10.00 Fair CLR 28.9 21 72% 17 30.03 1016.7
08 16:56 N 16 10.00 Fair CLR 28.9 21 72% 18 30.04 1017.1
08 15:56 N 15 10.00 Fair CLR 28.9 21 28.9 23 72% 18 30.06 1017.7
08 14:56 N 14 10.00 Fair CLR 28.9 21 72% 19 30.07 1018.2
08 13:56 NE 13 10.00 Overcast OVC017 28 19.9 72% 18 30.09 1018.7
08 12:56 NE 13 10.00 Overcast OVC015 28 19.9 72% 18 30.1 1019.0
08 11:56 NE 12 10.00 Overcast OVC015 27 19.9 75% 17 30.1 1019.3
08 10:56 NE 7 10.00 Overcast OVC015 26.1 21 81% 19 30.12 1019.8
08 09:56 NE 7 10.00 Overcast OVC017 23 19.9 23 15.1 88% 16 30.13 1020.3
08 08:56 NE 6 10.00 Partly Cloudy SCT017 18 15.1 88% 11 30.14 1020.5
08 07:56 NE 5 10.00 Mostly Cloudy SCT022 BKN095 19.9 18 92% 14 30.14 1020.5
08 06:56 N 6 10.00 Overcast OVC095 18 16 92% 11 30.15 1020.8
08 05:56 Calm 10.00 Overcast OVC100 18 15.1 88% 30.15 1021.0
08 04:56 N 3 10.00 Overcast OVC100 15.1 12.9 91% 30.16 1021.3
08 03:56 N 3 10.00 Overcast FEW001 OVC100 16 14 25 14 92% 30.16 1021.3
08 02:56 N 7 10.00 Overcast OVC100 14 12 92% 5 30.17 1021.6
08 01:56 N 6 10.00 Mostly Cloudy BKN100 14 12 92% 6 30.18 1021.9
08 00:56 NW 7 8.00 Fair CLR 16 14 92% 7 30.18 1022.0
07 23:56 N 6 10.00 Fair CLR 19 16 88% 12 30.19 1022.2
07 22:56 N 6 10.00 Fair CLR 23 19 85% 17 30.19 1022.4
07 21:56 N 6 10.00 Fair CLR 25 19.9 28 25 81% 19 30.19 1022.4
07 20:56 N 7 10.00 Fair CLR 27 21 78% 20 30.19 1022.3
07 19:56 N 8 10.00 Fair CLR 27 21 78% 19 30.2 1022.5
07 18:56 N 10 10.00 Fair CLR 27 21 78% 18 30.2 1022.7
07 17:56 N 10 10.00 Partly Cloudy SCT006 27 21 78% 18 30.21 1022.9
07 16:56 N 10 10.00 Partly Cloudy SCT035 26.1 19.9 78% 17 30.21 1022.9
07 15:56 N 9 10.00 Overcast OVC037 26.1 19.9 26.1 21 78% 18 30.22 1023.2
07 14:56 N 10 10.00 Overcast OVC037 25 19 78% 16 30.23 1023.5
07 13:56 N 12 10.00 Overcast OVC039 24.1 17.1 75% 14 30.23 1023.5
07 12:56 N 10 10.00 Overcast OVC041 25 18 75% 16 30.22 1023.3
07 11:56 N 9 10.00 Overcast SCT007 OVC041 24.1 17.1 75% 15 30.23 1023.4
07 10:56 N 12 10.00 Overcast OVC007 21 17.1 85% 10 30.22 1023.4
07 09:56 N 12 10.00 Overcast OVC005 19.9 18 19.9 17.1 92% 9 30.23 1023.5
07 08:56 N 10 10.00 Overcast OVC005 19 16 88% 8 30.23 1023.4
07 07:56 N 9 8.00 Light Snow OVC005 18 16 92% 8 30.23 1023.5
07 06:56 N 9 10.00 Overcast OVC007 18 16 92% 8 30.22 1023.3
07 05:56 N 13 6.00 Light Snow Fog/Mist OVC005 17.1 15.1 92% 5 30.22 1023.2
07 04:56 N 13 3.00 Light Snow Fog/Mist OVC005 18 16 92% 6 30.22 1023.2
07 03:56 N 13 5.00 Light Snow Fog/Mist OVC005 18 16 21 18 92% 6 30.22 1023.2
07 02:56 N 13 7.00 Light Snow OVC005 19 17.1 92% 7 30.21 1022.9
07 01:56 N 12 9.00 Light Snow OVC005 19.9 17.1 89% 9 30.2 1022.5
07 00:56 N 12 10.00 Overcast OVC007 19.9 18 92% 9 30.19 1022.4
06 23:56 N 10 10.00 Overcast OVC005 19.9 17.1 89% 9 30.19 1022.3
06 22:56 N 12 10.00 Overcast OVC007 19.9 17.1 89% 9 30.18 1022.0
06 21:56 N 13 10.00 Overcast OVC007 21 18 24.1 21 88% 10 30.18 1021.8
06 20:56 N 14 10.00 Overcast OVC007 23 18 81% 11 30.17 1021.6
06 19:56 N 16 10.00 Overcast OVC007 23 18 81% 11 30.17 1021.4
06 18:56 N 13 10.00 Overcast OVC009 23 17.1 78% 12 30.16 1021.2
06 17:56 N 9 10.00 Overcast BKN009 OVC014 23 18 81% 14 30.15 1020.7
06 16:56 N 10 10.00 Mostly Cloudy BKN016 23 16 74% 13 30.14 1020.4
06 15:56 N 13 10.00 Overcast OVC011 23 16 25 19.9 74% 12 30.13 1020.1
06 14:56 N 13 10.00 Overcast OVC011 21.9 15.1 75% 11 30.13 1020.0
06 13:56 N 13 10.00 Overcast OVC011 21 15.1 78% 10 30.12 1019.8
06 12:56 N 13 10.00 Overcast OVC011 21.9 15.1 75% 11 30.1 1019.2
06 11:56 N 9 10.00 Overcast OVC013 23 15.1 72% 14 30.09 1018.9
06 10:56 N 10 10.00 Overcast OVC015 21.9 17.1 82% 12 30.07 1018.2
06 09:56 N 8 10.00 Overcast OVC017 19.9 17.1 19.9 18 89% 11 30.06 1017.8
06 08:56 N 10 9.00 Light Snow OVC010 19 16 88% 8 30.05 1017.5
06 07:56 N 9 9.00 Overcast OVC012 19 16 88% 9 30.04 1017.0
06 06:56 NW 8 9.00 Overcast OVC012 18 16 92% 9 30.03 1016.7
06 05:56 NW 7 9.00 Overcast OVC010 18 16 92% 10 30.02 1016.5
06 04:56 NW 8 9.00 Light Snow FEW010 OVC046 18 15.1 88% 9 30.02 1016.3
06 03:56 NW 7 7.00 Light Snow FEW029 BKN039 BKN048 18 15.1 19 17.1 88% 10 30.01 1016.2
Date Time (akdt) Wind (mph) Vis. (mi.) Weather Sky Cond. Air Dwpt Max. Min. Relative Humidity Wind Chill (°F) Heat Index (°F) altimeter (in) sea level (mb) 1 hr 3 hr 6 hr
6 hour
Temperature (ºF) Pressure Precipitation (in)